Time;durP1;ratioP1;P1;durP2;ratioP2;P2;SDS_P1;SDS_P2;PMS_P1;PMS_P2;Temp;Humidity;BMP_temperature;BMP_pressure;BME280_temperature;BME280_humidity;BME280_pressure;Samples;Min_cycle;Max_cycle;Signal;HPM_P1;HPM_P2
2020/12/19 13:09:18;;;;;;;4.00;0.88;;;19.60;69.00;;;;;;5061274;28;20358;-37
2020/12/19 13:11:43;;;;;;;11.15;1.00;;;19.50;69.50;;;;;;5064646;28;20039;-38
2020/12/19 13:14:09;;;;;;;15.15;3.33;;;19.60;69.50;;;;;;5053138;28;20037;-37
2020/12/19 13:16:35;;;;;;;5.60;1.02;;;19.70;70.30;;;;;;5054711;28;20091;-36
2020/12/19 13:19:00;;;;;;;15.32;1.00;;;19.90;68.10;;;;;;5047818;28;20489;-38
2020/12/19 13:21:26;;;;;;;9.75;1.25;;;19.80;68.40;;;;;;5058471;28;20041;-37
2020/12/19 13:23:51;;;;;;;4.85;1.38;;;19.80;69.20;;;;;;5049557;28;20094;-38
2020/12/19 13:26:17;;;;;;;6.65;1.55;;;19.70;68.70;;;;;;5050036;28;20520;-36
2020/12/19 13:28:43;;;;;;;4.90;0.80;;;19.80;68.60;;;;;;5058094;28;20442;-37
2020/12/19 13:31:09;;;;;;;6.40;1.30;;;19.80;68.40;;;;;;5056694;28;20629;-36
2020/12/19 13:33:34;;;;;;;2.90;1.00;;;19.80;68.30;;;;;;5056283;28;20044;-46
2020/12/19 13:36:00;;;;;;;4.55;1.15;;;19.80;68.40;;;;;;5058413;28;20052;-40
2020/12/19 13:38:25;;;;;;;3.70;1.10;;;19.80;68.20;;;;;;5064483;28;20120;-38
2020/12/19 13:40:51;;;;;;;3.00;1.00;;;19.80;68.20;;;;;;5059185;28;20048;-39
2020/12/19 13:43:16;;;;;;;5.75;0.85;;;19.80;68.40;;;;;;5040867;28;20078;-41
2020/12/19 13:45:42;;;;;;;8.48;1.15;;;19.80;68.40;;;;;;5052583;28;20044;-38
2020/12/19 13:48:08;;;;;;;4.47;1.00;;;19.70;68.40;;;;;;5060819;28;20040;-41
2020/12/19 13:50:34;;;;;;;6.63;1.23;;;19.80;68.30;;;;;;5063717;28;20564;-38
2020/12/19 13:52:59;;;;;;;5.70;0.80;;;19.80;68.30;;;;;;5064041;28;20436;-41
2020/12/19 13:55:25;;;;;;;4.93;1.30;;;19.70;68.20;;;;;;5052614;28;20040;-42
2020/12/19 13:57:50;;;;;;;5.30;0.98;;;19.70;68.30;;;;;;5061245;28;20069;-41
2020/12/19 14:00:16;;;;;;;2.72;0.98;;;19.70;68.30;;;;;;5061622;28;20028;-41
2020/12/19 14:02:41;;;;;;;2.25;1.20;;;19.60;68.40;;;;;;5062244;28;20041;-40
2020/12/19 14:05:07;;;;;;;9.75;1.40;;;19.60;68.40;;;;;;5065168;28;20413;-40
2020/12/19 14:07:33;;;;;;;3.97;1.15;;;19.60;68.50;;;;;;5059535;28;20040;-35
2020/12/19 14:09:58;;;;;;;5.88;1.38;;;19.60;68.50;;;;;;5059422;28;20151;-40
2020/12/19 14:12:24;;;;;;;6.50;1.20;;;19.60;68.50;;;;;;5058418;28;20087;-39
2020/12/19 14:14:50;;;;;;;2.97;1.10;;;19.60;68.50;;;;;;5061526;28;20048;-40
2020/12/19 14:17:15;;;;;;;5.47;1.27;;;19.60;68.40;;;;;;5063303;28;20045;-39
2020/12/19 14:19:41;;;;;;;5.53;0.90;;;19.60;68.40;;;;;;5033642;28;20069;-39
2020/12/19 14:22:06;;;;;;;7.80;1.20;;;19.60;68.60;;;;;;5026600;28;20721;-38
2020/12/19 14:24:32;;;;;;;8.63;2.03;;;19.60;69.30;;;;;;5045814;28;20045;-38
2020/12/19 14:26:58;;;;;;;5.22;1.40;;;19.60;68.80;;;;;;5043332;28;20085;-40
2020/12/19 14:29:24;;;;;;;1.98;1.13;;;19.70;68.20;;;;;;5047653;28;20040;-38
2020/12/19 14:31:50;;;;;;;5.93;1.15;;;19.70;68.00;;;;;;5046722;28;20053;-41
2020/12/19 14:34:16;;;;;;;3.55;1.27;;;19.70;68.10;;;;;;5040806;28;20137;-39
2020/12/19 14:36:41;;;;;;;4.32;0.80;;;19.70;68.00;;;;;;5041243;28;20044;-39
2020/12/19 14:39:07;;;;;;;4.93;1.00;;;19.70;68.20;;;;;;5038232;28;20412;-38
2020/12/19 14:41:32;;;;;;;5.07;1.33;;;19.70;68.40;;;;;;5048752;28;20029;-38
2020/12/19 14:43:58;;;;;;;5.40;0.82;;;19.70;68.20;;;;;;5047798;28;20053;-37
2020/12/19 14:46:24;;;;;;;3.28;0.95;;;19.70;68.10;;;;;;5046071;28;20075;-40
2020/12/19 14:48:50;;;;;;;2.72;0.90;;;19.70;68.00;;;;;;5044885;28;20046;-40
2020/12/19 14:51:17;;;;;;;3.20;0.88;;;19.70;68.00;;;;;;5038603;28;20033;-38
2020/12/19 14:53:42;;;;;;;1.65;1.15;;;19.70;68.40;;;;;;5047733;28;29425;-39
2020/12/19 14:56:12;;;;;;;1.88;0.88;;;19.60;68.20;;;;;;5044840;28;20615;-38
2020/12/19 14:58:38;;;;;;;1.52;0.90;;;19.60;68.30;;;;;;5041553;28;20497;-38
2020/12/19 15:01:04;;;;;;;2.17;0.95;;;19.60;68.30;;;;;;5044955;28;20124;-39
2020/12/19 15:03:30;;;;;;;5.47;0.88;;;19.60;68.30;;;;;;5046303;28;20424;-38
2020/12/19 15:05:56;;;;;;;3.90;0.93;;;19.60;69.00;;;;;;5045863;28;20059;-38
2020/12/19 15:08:22;;;;;;;2.47;1.15;;;19.60;68.20;;;;;;5044500;28;20053;-38
2020/12/19 15:10:47;;;;;;;3.60;1.10;;;19.60;68.20;;;;;;5047448;28;20152;-39
2020/12/19 15:13:13;;;;;;;1.85;1.00;;;19.60;68.20;;;;;;5045574;28;20104;-39
2020/12/19 15:15:38;;;;;;;2.13;1.17;;;19.60;68.30;;;;;;5046903;28;20644;-38
2020/12/19 15:18:04;;;;;;;1.98;1.15;;;19.60;68.40;;;;;;5047466;28;20053;-39
2020/12/19 15:20:30;;;;;;;2.53;1.05;;;19.60;68.40;;;;;;5048145;28;20021;-39
2020/12/19 15:22:56;;;;;;;5.03;1.10;;;19.50;68.40;;;;;;5045102;28;20466;-39
2020/12/19 15:25:21;;;;;;;5.45;1.20;;;19.50;68.50;;;;;;5042029;28;20028;-39
2020/12/19 15:27:47;;;;;;;1.85;0.93;;;19.50;68.50;;;;;;5042012;28;20045;-40
2020/12/19 15:30:13;;;;;;;2.13;1.08;;;19.50;68.50;;;;;;5046588;28;20029;-38
2020/12/19 15:32:38;;;;;;;5.07;1.00;;;19.50;68.50;;;;;;5047776;28;20112;-38
2020/12/19 15:35:04;;;;;;;3.10;1.00;;;19.40;68.40;;;;;;5048442;28;20088;-39
2020/12/19 15:37:30;;;;;;;1.60;0.80;;;19.40;68.40;;;;;;5043547;28;20028;-37
2020/12/19 15:39:55;;;;;;;4.15;1.52;;;19.40;68.40;;;;;;4690480;28;9999988;-37
2020/12/19 15:42:21;;;;;;;2.15;0.98;;;19.40;68.40;;;;;;5033885;28;20042;-38
2020/12/19 15:44:46;;;;;;;3.13;1.30;;;19.40;68.50;;;;;;5046708;28;20472;-38
2020/12/19 15:47:12;;;;;;;4.10;0.93;;;19.40;68.40;;;;;;5043028;28;20055;-36
2020/12/19 15:49:37;;;;;;;4.00;1.08;;;19.40;68.40;;;;;;5040423;28;20124;-35
2020/12/19 15:52:03;;;;;;;1.77;0.88;;;19.40;68.40;;;;;;5035841;28;20581;-37
2020/12/19 15:54:29;;;;;;;1.40;0.90;;;19.40;68.50;;;;;;5043195;28;20041;-37
2020/12/19 15:56:54;;;;;;;2.05;0.90;;;19.40;68.50;;;;;;5043856;28;20517;-38
2020/12/19 15:59:20;;;;;;;1.73;0.73;;;19.40;68.50;;;;;;5044132;28;20045;-38
2020/12/19 16:01:46;;;;;;;2.97;1.05;;;19.40;68.50;;;;;;5044907;28;20052;-37
2020/12/19 16:04:12;;;;;;;2.63;1.17;;;19.40;68.40;;;;;;5044708;28;20548;-37
2020/12/19 16:06:38;;;;;;;1.90;0.75;;;19.40;68.30;;;;;;5045721;28;20033;-37
2020/12/19 16:09:04;;;;;;;3.15;1.17;;;19.40;68.20;;;;;;5046052;28;20074;-37
2020/12/19 16:11:29;;;;;;;3.38;1.40;;;19.40;68.30;;;;;;5044692;28;20447;-40
2020/12/19 16:13:55;;;;;;;4.28;1.13;;;19.40;68.10;;;;;;5045206;28;20029;-37
2020/12/19 16:16:22;;;;;;;3.63;1.08;;;19.40;68.10;;;;;;5044173;28;20688;-37
2020/12/19 16:18:47;;;;;;;3.28;0.95;;;19.40;68.10;;;;;;5044195;28;20049;-37
2020/12/19 16:21:13;;;;;;;2.15;1.00;;;19.40;68.10;;;;;;5044092;28;20532;-37
2020/12/19 16:23:45;;;;;;;3.75;1.05;;;19.40;68.10;;;;;;5044426;28;20025;-37
2020/12/19 16:26:11;;;;;;;1.55;0.85;;;19.40;68.00;;;;;;5044804;28;20118;-36
2020/12/19 16:28:37;;;;;;;4.70;1.30;;;19.40;68.10;;;;;;5045581;28;20037;-37
2020/12/19 16:31:03;;;;;;;4.18;0.90;;;19.40;68.10;;;;;;5047445;28;20441;-37
2020/12/19 16:33:28;;;;;;;1.98;0.98;;;19.40;68.00;;;;;;5039155;28;20122;-37
2020/12/19 16:35:54;;;;;;;2.63;0.90;;;19.40;68.00;;;;;;5046211;28;20033;-37
2020/12/19 16:38:19;;;;;;;1.83;1.05;;;19.40;68.00;;;;;;5044437;28;20048;-36
2020/12/19 16:40:47;;;;;;;4.75;1.23;;;19.40;68.00;;;;;;5039101;28;20531;-39
2020/12/19 16:43:30;;;;;;;5.88;1.05;;;19.40;68.10;;;;;;5041942;28;20056;-37
2020/12/19 16:45:56;;;;;;;2.63;1.08;;;19.50;68.00;;;;;;5042835;28;20032;-36
2020/12/19 16:48:21;;;;;;;2.58;1.08;;;19.50;68.10;;;;;;5045503;28;20040;-37
2020/12/19 16:50:47;;;;;;;6.32;1.13;;;19.50;67.90;;;;;;5042092;28;20424;-37
2020/12/19 16:53:13;;;;;;;4.32;1.20;;;19.50;67.80;;;;;;5045357;28;20096;-36
2020/12/19 16:55:38;;;;;;;4.50;1.13;;;19.50;67.80;;;;;;5036668;28;20112;-37
2020/12/19 16:58:04;;;;;;;8.38;1.33;;;19.50;67.70;;;;;;5039755;28;20052;-38
2020/12/19 17:00:34;;;;;;;3.90;1.17;;;19.50;67.90;;;;;;5043553;28;20041;-37
2020/12/19 17:03:00;;;;;;;4.25;1.20;;;19.50;67.50;;;;;;5041133;28;20048;-37
2020/12/19 17:05:25;;;;;;;1.90;0.95;;;19.50;67.50;;;;;;5038286;28;20589;-38
2020/12/19 17:07:51;;;;;;;1.95;0.80;;;19.60;67.50;;;;;;5040966;28;20045;-38
2020/12/19 17:10:16;;;;;;;2.90;1.30;;;19.50;67.50;;;;;;5038564;28;20158;-38
2020/12/19 17:12:42;;;;;;;4.10;1.10;;;19.60;67.50;;;;;;5037561;28;20576;-38
2020/12/19 17:15:07;;;;;;;3.70;1.00;;;19.60;67.30;;;;;;5038681;28;20048;-38
2020/12/19 17:17:34;;;;;;;3.53;1.20;;;19.60;67.30;;;;;;5031444;28;20118;-38
2020/12/19 17:20:00;;;;;;;4.32;1.17;;;19.60;67.30;;;;;;5031947;28;20079;-39
2020/12/19 17:22:25;;;;;;;2.38;1.20;;;19.60;68.00;;;;;;5040519;28;20065;-37
2020/12/19 17:24:51;;;;;;;2.17;1.15;;;19.60;67.20;;;;;;5040704;28;20096;-38
2020/12/19 17:27:17;;;;;;;3.33;1.23;;;19.60;67.10;;;;;;5027814;28;20107;-38
2020/12/19 17:29:42;;;;;;;4.07;1.27;;;19.60;67.10;;;;;;5038170;28;20072;-38
2020/12/19 17:32:08;;;;;;;4.13;1.60;;;19.60;67.10;;;;;;5045000;28;20047;-40
2020/12/19 17:34:33;;;;;;;3.00;1.00;;;19.70;67.00;;;;;;5040007;28;20067;-38
2020/12/19 17:36:59;;;;;;;3.72;1.38;;;19.70;66.90;;;;;;5038243;28;20489;-37
2020/12/19 17:39:25;;;;;;;2.95;1.10;;;19.70;66.80;;;;;;5043262;28;20063;-38
2020/12/19 17:41:50;;;;;;;4.90;1.10;;;19.70;67.60;;;;;;5044158;28;20674;-48
2020/12/19 17:44:16;;;;;;;5.38;1.40;;;19.70;66.90;;;;;;5045013;28;20059;-38
2020/12/19 17:46:41;;;;;;;2.83;1.58;;;19.70;66.90;;;;;;5040659;28;20036;-40
2020/12/19 17:49:07;;;;;;;161.05;87.90;;;19.80;67.00;;;;;;5037989;28;20052;-38
2020/12/19 17:51:33;;;;;;;177.25;101.85;;;19.70;66.90;;;;;;5042524;28;20437;-38
2020/12/19 17:53:59;;;;;;;239.57;137.18;;;19.70;66.90;;;;;;5043079;28;20044;-39
2020/12/19 17:56:25;;;;;;;235.43;130.90;;;19.70;67.10;;;;;;5047194;28;20033;-38
2020/12/19 17:58:50;;;;;;;150.98;91.00;;;19.70;67.30;;;;;;5045478;28;20500;-38
2020/12/19 18:01:17;;;;;;;70.93;35.95;;;19.80;67.70;;;;;;5044485;28;20078;-37
2020/12/19 18:03:42;;;;;;;97.93;53.65;;;19.80;66.00;;;;;;5044290;28;20080;-37
2020/12/19 18:06:09;;;;;;;151.60;88.20;;;19.80;67.20;;;;;;5042304;28;20119;-37
2020/12/19 18:08:35;;;;;;;120.03;65.30;;;19.80;67.20;;;;;;5044274;28;20068;-38
2020/12/19 18:11:01;;;;;;;114.15;67.15;;;19.80;67.70;;;;;;5048214;28;20119;-38
2020/12/19 18:13:27;;;;;;;154.50;90.93;;;19.80;66.70;;;;;;5043788;28;20135;-38
2020/12/19 18:15:54;;;;;;;167.38;100.78;;;19.80;66.70;;;;;;5043089;28;20048;-39
2020/12/19 18:18:20;;;;;;;158.43;96.00;;;19.70;67.30;;;;;;5046356;28;20029;-38
2020/12/19 18:20:45;;;;;;;150.85;89.60;;;19.70;67.10;;;;;;5045038;28;20033;-37
2020/12/19 18:23:11;;;;;;;150.13;93.78;;;19.70;67.20;;;;;;5047671;28;20021;-37
2020/12/19 18:25:37;;;;;;;139.30;83.35;;;19.70;67.20;;;;;;5045453;28;20400;-38
2020/12/19 18:28:02;;;;;;;133.07;79.72;;;19.70;67.30;;;;;;5048366;28;20033;-37
2020/12/19 18:30:28;;;;;;;133.20;80.30;;;19.70;67.50;;;;;;5040966;28;20100;-38
2020/12/19 18:32:53;;;;;;;123.60;71.35;;;19.70;67.20;;;;;;5045960;28;20029;-39
2020/12/19 18:35:19;;;;;;;125.40;74.88;;;19.70;67.30;;;;;;5047473;28;20039;-40
2020/12/19 18:37:44;;;;;;;122.65;69.47;;;19.70;67.40;;;;;;5041032;28;20412;-38
2020/12/19 18:40:10;;;;;;;104.70;60.53;;;19.60;67.30;;;;;;5041583;28;20032;-37
2020/12/19 18:42:36;;;;;;;121.85;70.90;;;19.60;67.20;;;;;;5044122;28;20021;-37
2020/12/19 18:45:01;;;;;;;119.68;66.65;;;19.50;67.50;;;;;;5046506;28;20017;-38
2020/12/19 18:47:27;;;;;;;119.65;70.55;;;19.50;67.60;;;;;;5043221;28;20040;-42
2020/12/19 18:49:53;;;;;;;104.85;64.50;;;19.50;67.70;;;;;;5044310;28;20171;-39
2020/12/19 18:52:18;;;;;;;102.38;63.42;;;19.50;67.80;;;;;;5042820;28;20497;-38
2020/12/19 18:54:44;;;;;;;103.53;61.53;;;19.50;67.80;;;;;;5043646;28;20514;-38
2020/12/19 18:57:10;;;;;;;95.43;58.45;;;19.40;67.90;;;;;;5044285;28;20021;-38
2020/12/19 18:59:36;;;;;;;98.05;59.97;;;19.40;68.00;;;;;;5042384;28;20125;-36
2020/12/19 19:02:02;;;;;;;102.35;59.25;;;19.40;67.90;;;;;;5044554;28;20025;-35
2020/12/19 19:04:27;;;;;;;101.07;60.95;;;19.40;68.00;;;;;;5040283;28;20056;-37
2020/12/19 19:06:53;;;;;;;91.15;54.63;;;19.40;68.10;;;;;;5043861;28;21528;-36
2020/12/19 19:09:18;;;;;;;84.72;51.60;;;19.40;68.30;;;;;;5043563;28;20041;-38
2020/12/19 19:11:44;;;;;;;98.38;55.08;;;19.40;68.50;;;;;;5039318;28;20032;-37
2020/12/19 19:14:10;;;;;;;85.85;52.67;;;19.40;68.30;;;;;;5035768;28;20029;-39
2020/12/19 19:16:35;;;;;;;85.53;52.75;;;19.40;68.60;;;;;;5046312;28;20032;-39
2020/12/19 19:19:05;;;;;;;88.15;49.28;;;19.40;68.70;;;;;;5044343;28;20548;-40
2020/12/19 19:21:31;;;;;;;84.45;50.53;;;19.30;68.80;;;;;;5045493;28;20473;-39
2020/12/19 19:23:57;;;;;;;83.65;48.97;;;19.30;68.90;;;;;;5045570;28;20108;-37
2020/12/19 19:26:23;;;;;;;83.10;47.05;;;19.30;68.80;;;;;;5045154;28;20033;-37
2020/12/19 19:28:49;;;;;;;73.05;40.58;;;19.30;69.00;;;;;;5047555;28;20447;-38
2020/12/19 19:31:16;;;;;;;80.40;45.05;;;19.30;69.10;;;;;;5047142;28;20029;-40
2020/12/19 19:33:41;;;;;;;77.38;45.95;;;19.30;69.00;;;;;;5044441;28;20117;-38
2020/12/19 19:36:07;;;;;;;76.78;47.55;;;19.30;69.20;;;;;;5047744;28;20116;-37
2020/12/19 19:38:33;;;;;;;77.70;44.35;;;19.30;69.10;;;;;;5039723;28;20029;-38
2020/12/19 19:40:58;;;;;;;75.38;44.42;;;19.30;69.20;;;;;;5037473;28;20489;-38
2020/12/19 19:43:24;;;;;;;72.72;45.42;;;19.30;69.30;;;;;;5047303;28;20059;-38
2020/12/19 19:45:49;;;;;;;69.80;40.33;;;19.30;69.20;;;;;;5047459;28;20028;-40
2020/12/19 19:48:15;;;;;;;66.97;38.85;;;19.30;69.30;;;;;;5042213;28;20503;-38
2020/12/19 19:50:40;;;;;;;69.95;39.53;;;19.30;69.40;;;;;;5031374;28;20030;-38
2020/12/19 19:53:06;;;;;;;61.88;38.17;;;19.30;69.30;;;;;;5043112;28;20087;-41
2020/12/19 19:55:31;;;;;;;63.08;36.97;;;19.30;69.20;;;;;;5034314;28;20032;-38
2020/12/19 19:57:57;;;;;;;62.78;34.38;;;19.30;69.30;;;;;;5032948;28;20029;-39
2020/12/19 20:00:22;;;;;;;64.85;38.35;;;19.30;69.30;;;;;;5046788;28;20037;-38
2020/12/19 20:02:48;;;;;;;58.75;34.58;;;19.30;69.30;;;;;;5045265;28;20028;-40
2020/12/19 20:05:14;;;;;;;65.97;38.40;;;19.20;69.20;;;;;;5047143;28;20036;-37
2020/12/19 20:07:39;;;;;;;59.28;34.85;;;19.30;69.30;;;;;;5043226;28;20768;-38
2020/12/19 20:10:05;;;;;;;57.33;34.00;;;19.20;69.20;;;;;;5042353;28;20567;-38
2020/12/19 20:12:30;;;;;;;54.65;35.60;;;19.20;69.20;;;;;;5045862;28;20033;-39
2020/12/19 20:14:57;;;;;;;57.60;34.75;;;19.20;69.20;;;;;;5045532;28;20028;-37
2020/12/19 20:17:23;;;;;;;58.85;37.35;;;19.20;69.20;;;;;;5043589;28;20078;-39
2020/12/19 20:19:49;;;;;;;54.78;33.85;;;19.20;69.20;;;;;;5046108;28;20476;-37
2020/12/19 20:22:14;;;;;;;55.20;35.33;;;19.20;69.20;;;;;;5042331;28;20062;-38
2020/12/19 20:24:40;;;;;;;56.70;35.58;;;19.20;69.10;;;;;;5039239;28;20042;-39
2020/12/19 20:27:06;;;;;;;48.70;31.83;;;19.20;69.10;;;;;;5044892;28;21621;-40
2020/12/19 20:29:31;;;;;;;49.67;32.63;;;19.10;69.20;;;;;;5044675;28;20037;-39
2020/12/19 20:31:57;;;;;;;49.97;32.00;;;19.10;69.20;;;;;;5040963;28;20416;-38
2020/12/19 20:34:26;;;;;;;50.75;28.95;;;19.20;69.20;;;;;;5037087;28;20037;-38
2020/12/19 20:36:52;;;;;;;52.72;29.95;;;19.10;69.20;;;;;;5038551;28;20397;-38
2020/12/19 20:39:18;;;;;;;52.35;28.75;;;19.10;69.10;;;;;;5043085;28;20033;-39
2020/12/19 20:41:43;;;;;;;51.72;32.35;;;19.10;69.20;;;;;;5043345;28;20497;-38
2020/12/19 20:44:09;;;;;;;43.40;27.13;;;19.10;69.20;;;;;;5039592;28;20021;-38
2020/12/19 20:46:35;;;;;;;41.90;26.23;;;19.20;69.10;;;;;;5039130;28;20034;-38
2020/12/19 20:49:00;;;;;;;46.63;29.15;;;19.10;69.00;;;;;;5038148;28;20037;-36
2020/12/19 20:51:27;;;;;;;42.78;27.70;;;19.20;69.00;;;;;;5041857;28;20072;-38
2020/12/19 20:53:53;;;;;;;45.10;28.55;;;19.10;69.00;;;;;;5040941;28;20064;-37
2020/12/19 20:56:19;;;;;;;49.03;29.50;;;19.10;69.10;;;;;;5046775;28;20387;-39
2020/12/19 20:58:46;;;;;;;48.75;28.10;;;19.10;69.00;;;;;;5039873;28;20029;-37
2020/12/19 21:01:12;;;;;;;52.33;29.27;;;19.10;69.00;;;;;;5042873;28;20056;-37
2020/12/19 21:03:37;;;;;;;43.63;28.45;;;19.10;68.90;;;;;;5042664;28;20112;-37
2020/12/19 21:06:03;;;;;;;43.83;27.45;;;19.10;69.00;;;;;;5043156;28;20456;-37
2020/12/19 21:08:29;;;;;;;44.78;23.80;;;19.10;69.10;;;;;;5045000;28;20049;-39
2020/12/19 21:10:57;;;;;;;40.03;24.95;;;19.10;69.10;;;;;;5042962;28;20029;-38
2020/12/19 21:13:24;;;;;;;38.25;24.23;;;19.10;69.20;;;;;;5041240;28;20025;-38
2020/12/19 21:15:50;;;;;;;40.17;24.13;;;19.10;69.20;;;;;;5043276;28;20017;-38
2020/12/19 21:18:15;;;;;;;45.28;24.65;;;19.10;69.20;;;;;;5040431;28;20029;-37
2020/12/19 21:20:44;;;;;;;73.38;39.78;;;19.10;69.30;;;;;;5043905;28;20029;-34
2020/12/19 21:23:10;;;;;;;52.72;29.08;;;19.10;69.30;;;;;;5041983;28;20057;-38
2020/12/19 21:25:35;;;;;;;41.63;25.17;;;19.10;69.40;;;;;;5038284;28;20504;-39
2020/12/19 21:28:01;;;;;;;43.22;24.77;;;19.10;69.30;;;;;;5043400;28;20711;-38
2020/12/19 21:30:27;;;;;;;46.03;25.92;;;19.10;69.30;;;;;;5047920;28;20093;-40
2020/12/19 21:32:52;;;;;;;40.58;24.85;;;19.10;69.40;;;;;;5044761;28;20435;-37
2020/12/19 21:35:18;;;;;;;43.72;25.77;;;19.10;69.40;;;;;;5043174;28;20025;-38
2020/12/19 21:37:44;;;;;;;41.00;26.38;;;19.10;69.40;;;;;;4693363;28;10000025;-41
2020/12/19 21:40:13;;;;;;;41.80;24.25;;;19.20;69.50;;;;;;5048514;28;20567;-39
2020/12/19 21:42:40;;;;;;;46.03;25.60;;;19.10;69.40;;;;;;5048138;28;20083;-37
2020/12/19 21:45:08;;;;;;;41.90;27.52;;;19.10;69.40;;;;;;5048716;28;20074;-40
2020/12/19 21:47:37;;;;;;;36.78;22.58;;;19.10;70.20;;;;;;5048896;28;20037;-38
2020/12/19 21:50:04;;;;;;;36.72;24.25;;;19.10;69.50;;;;;;5050419;28;20035;-38
2020/12/19 21:52:41;;;;;;;38.80;22.27;;;19.20;69.60;;;;;;5063189;28;20102;-37
2020/12/19 21:55:10;;;;;;;35.80;22.90;;;19.20;69.70;;;;;;5049064;28;20400;-38
2020/12/19 21:57:54;;;;;;;36.50;22.58;;;19.20;69.90;;;;;;4691304;28;9999974;-39
2020/12/19 22:00:23;;;;;;;31.42;20.02;;;19.20;69.90;;;;;;5044690;28;20031;-40
2020/12/19 22:02:56;;;;;;;30.98;20.20;;;19.20;69.90;;;;;;5045769;28;20037;-39
2020/12/19 22:05:22;;;;;;;30.23;18.73;;;19.20;70.20;;;;;;5049366;28;20033;-38
2020/12/19 22:07:48;;;;;;;29.90;18.90;;;19.20;70.20;;;;;;4699131;28;10000377;-38
2020/12/19 22:10:19;;;;;;;30.63;19.15;;;19.20;70.00;;;;;;5045643;28;20500;-42
2020/12/19 22:12:47;;;;;;;28.50;19.05;;;19.20;70.00;;;;;;5048384;28;20036;-40
2020/12/19 22:15:14;;;;;;;25.40;17.38;;;19.20;70.00;;;;;;5047704;28;20125;-38
2020/12/19 22:17:39;;;;;;;27.67;16.63;;;19.20;70.00;;;;;;5050296;28;20021;-38
2020/12/19 22:20:12;;;;;;;31.25;18.30;;;19.20;70.20;;;;;;5041058;28;20032;-37
2020/12/19 22:22:42;;;;;;;27.63;18.23;;;19.20;70.10;;;;;;4697132;28;9999981;-37
2020/12/19 22:25:09;;;;;;;24.52;16.02;;;19.20;70.00;;;;;;4695676;28;10000601;-39
2020/12/19 23:52:00;;;;;;;16.65;10.35;;;19.00;68.90;;;;;;5098992;27;20366;-41
2020/12/19 23:54:25;;;;;;;12.98;9.27;;;19.00;69.50;;;;;;5104135;28;20041;-41
2020/12/19 23:56:54;;;;;;;12.90;9.38;;;19.00;70.60;;;;;;5104576;28;20023;-37
2020/12/19 23:59:20;;;;;;;17.75;11.35;;;19.00;70.30;;;;;;5106463;28;20040;-38
